Time;durP1;ratioP1;P1;durP2;ratioP2;P2;SDS_P1;SDS_P2;PMS_P1;PMS_P2;Temp;Humidity;BMP_temperature;BMP_pressure;BME280_temperature;BME280_humidity;BME280_pressure;Samples;Min_cycle;Max_cycle;Signal;HPM_P1;HPM_P2
2022/01/03 00:00:33;;;;;;;27.05;15.02;;;;;;;;;;5069973;28;20025;-67
2022/01/03 00:03:01;;;;;;;25.73;15.05;;;;;;;;;;5070097;28;20531;-67
2022/01/03 00:05:27;;;;;;;25.77;14.75;;;;;;;;;;5069815;28;20021;-67
2022/01/03 00:07:53;;;;;;;26.23;14.45;;;;;;;;;;5069951;28;20365;-67
2022/01/03 00:10:20;;;;;;;24.80;14.25;;;;;;;;;;5070069;28;20025;-69
2022/01/03 00:12:46;;;;;;;23.83;14.23;;;;;;;;;;5070124;28;20032;-67
2022/01/03 00:15:14;;;;;;;26.38;13.93;;;;;;;;;;5069930;28;20217;-67
2022/01/03 00:17:40;;;;;;;28.42;15.40;;;;;;;;;;5069891;28;20020;-67
2022/01/03 00:20:07;;;;;;;24.27;13.20;;;;;;;;;;5069778;28;20456;-67
2022/01/03 00:22:51;;;;;;;23.60;14.30;;;;;;;;;;5069680;28;20017;-67
2022/01/03 00:25:19;;;;;;;23.83;13.32;;;;;;;;;;5069896;28;20043;-67
2022/01/03 00:28:19;;;;;;;25.75;13.48;;;;;;;;;;5069717;28;20063;-67
2022/01/03 00:30:44;;;;;;;24.00;13.95;;;;;;;;;;5069641;28;20031;-67
2022/01/03 00:33:10;;;;;;;25.38;13.00;;;;;;;;;;5069925;28;20104;-67
2022/01/03 00:35:41;;;;;;;22.83;12.88;;;;;;;;;;5069894;28;20036;-67
2022/01/03 00:38:09;;;;;;;23.77;13.57;;;;;;;;;;5069608;28;20504;-67
2022/01/03 00:40:36;;;;;;;23.98;13.45;;;;;;;;;;5069627;28;20048;-67
2022/01/03 00:43:03;;;;;;;23.67;13.20;;;;;;;;;;5069527;28;20115;-67
2022/01/03 00:45:28;;;;;;;25.35;13.73;;;;;;;;;;5069732;28;20028;-67
2022/01/03 00:47:55;;;;;;;25.88;14.05;;;;;;;;;;5069742;28;20035;-67
2022/01/03 00:50:22;;;;;;;23.42;13.50;;;;;;;;;;5069774;28;20465;-67
2022/01/03 00:52:49;;;;;;;23.10;13.57;;;;;;;;;;5069546;28;20035;-67
2022/01/03 00:55:15;;;;;;;23.42;13.02;;;;;;;;;;5069627;28;20037;-67
2022/01/03 00:57:43;;;;;;;22.98;13.57;;;;;;;;;;5069492;28;20033;-67
2022/01/03 01:00:09;;;;;;;22.75;13.27;;;;;;;;;;5073343;28;20613;-67
2022/01/03 01:02:38;;;;;;;20.95;12.52;;;;;;;;;;5073133;28;20522;-67
2022/01/03 01:05:05;;;;;;;23.00;13.00;;;;;;;;;;5073107;28;20054;-67
2022/01/03 01:07:32;;;;;;;25.90;12.90;;;;;;;;;;5073056;28;20035;-67
2022/01/03 01:10:01;;;;;;;22.13;12.63;;;;;;;;;;5073165;28;20028;-67
2022/01/03 01:12:28;;;;;;;20.85;12.27;;;;;;;;;;5072975;28;20118;-67
2022/01/03 01:14:54;;;;;;;24.13;12.85;;;;;;;;;;5073146;28;20228;-67
2022/01/03 01:17:21;;;;;;;22.92;12.52;;;;;;;;;;5072852;28;20305;-67
2022/01/03 01:19:46;;;;;;;21.92;11.75;;;;;;;;;;5073315;28;20051;-67
2022/01/03 01:22:12;;;;;;;22.77;12.68;;;;;;;;;;5072908;28;20453;-67
2022/01/03 01:24:48;;;;;;;24.35;12.50;;;;;;;;;;5072750;28;20024;-67
2022/01/03 01:29:57;;;;;;;22.02;11.18;;;;;;;;;;5072610;28;20146;-67
2022/01/03 01:32:23;;;;;;;22.73;11.40;;;;;;;;;;5072632;28;20454;-67
2022/01/03 01:34:51;;;;;;;19.38;11.55;;;;;;;;;;5072692;28;20025;-67
2022/01/03 01:37:19;;;;;;;20.33;11.43;;;;;;;;;;5072495;28;20041;-67
2022/01/03 01:39:47;;;;;;;18.48;11.25;;;;;;;;;;5072559;28;20031;-67
2022/01/03 01:42:15;;;;;;;20.95;11.57;;;;;;;;;;5072611;28;20094;-67
2022/01/03 01:44:46;;;;;;;23.95;11.88;;;;;;;;;;5072391;28;20025;-67
2022/01/03 01:47:13;;;;;;;21.30;11.98;;;;;;;;;;5072444;28;20044;-67
2022/01/03 01:49:46;;;;;;;20.73;11.15;;;;;;;;;;5072385;28;20059;-67
2022/01/03 01:52:20;;;;;;;19.02;10.93;;;;;;;;;;5072306;28;20028;-67
2022/01/03 01:55:01;;;;;;;20.27;11.05;;;;;;;;;;5072210;28;20506;-67
2022/01/03 01:57:49;;;;;;;;;;;;;;;;;;5072769;28;20021;-67
2022/01/03 02:00:16;;;;;;;16.73;10.02;;;;;;;;;;5042900;28;19912;-67
2022/01/03 02:03:25;;;;;;;21.17;11.10;;;;;;;;;;5072009;28;20031;-67
2022/01/03 02:06:29;;;;;;;20.52;10.60;;;;;;;;;;5071995;28;20032;-67
2022/01/03 02:09:05;;;;;;;22.92;11.55;;;;;;;;;;5058796;28;20511;-67
2022/01/03 02:11:37;;;;;;;18.85;10.13;;;;;;;;;;5071386;28;20108;-67
2022/01/03 02:14:04;;;;;;;19.30;11.07;;;;;;;;;;5071876;28;20111;-67
2022/01/03 02:16:32;;;;;;;19.58;10.32;;;;;;;;;;5071907;28;20554;-67
2022/01/03 02:18:57;;;;;;;18.75;10.98;;;;;;;;;;5071761;28;20387;-67
2022/01/03 02:21:23;;;;;;;18.65;10.70;;;;;;;;;;5071665;28;20028;-67
2022/01/03 02:23:48;;;;;;;18.73;10.60;;;;;;;;;;5071859;28;20033;-67
2022/01/03 02:26:14;;;;;;;19.67;10.32;;;;;;;;;;5071802;28;20082;-67
2022/01/03 02:28:39;;;;;;;21.52;11.30;;;;;;;;;;5071489;28;20148;-67
2022/01/03 02:31:05;;;;;;;18.70;10.32;;;;;;;;;;5071670;28;20027;-67
2022/01/03 02:33:31;;;;;;;18.42;10.35;;;;;;;;;;5071313;28;20495;-67
2022/01/03 02:35:57;;;;;;;18.35;10.75;;;;;;;;;;5071355;28;20557;-68
2022/01/03 02:38:22;;;;;;;18.95;9.88;;;;;;;;;;5071481;28;20032;-67
2022/01/03 02:40:48;;;;;;;20.92;10.50;;;;;;;;;;5071514;28;20044;-67
2022/01/03 02:43:14;;;;;;;20.23;10.75;;;;;;;;;;5071373;28;20036;-67
2022/01/03 02:45:39;;;;;;;18.02;10.13;;;;;;;;;;5071486;28;20021;-67
2022/01/03 02:48:11;;;;;;;19.45;11.43;;;;;;;;;;5071187;28;20020;-67
2022/01/03 02:50:39;;;;;;;19.30;10.60;;;;;;;;;;5071195;28;20472;-67
2022/01/03 02:53:04;;;;;;;19.15;10.77;;;;;;;;;;5071175;28;20021;-67
2022/01/03 02:55:30;;;;;;;18.42;10.77;;;;;;;;;;5071549;28;20035;-67
2022/01/03 02:58:05;;;;;;;20.45;10.77;;;;;;;;;;5070968;28;20494;-67
2022/01/03 03:00:31;;;;;;;20.83;11.02;;;;;;;;;;5070834;28;20373;-67
2022/01/03 03:02:56;;;;;;;20.27;10.60;;;;;;;;;;5070936;28;20157;-67
2022/01/03 03:05:22;;;;;;;21.02;10.95;;;;;;;;;;5070898;28;20024;-67
2022/01/03 03:07:48;;;;;;;19.35;10.00;;;;;;;;;;5070725;28;20037;-67
2022/01/03 03:10:17;;;;;;;19.60;11.13;;;;;;;;;;5070798;28;20021;-67
2022/01/03 03:12:43;;;;;;;18.85;10.43;;;;;;;;;;5070536;28;20056;-67
2022/01/03 03:15:11;;;;;;;17.45;10.05;;;;;;;;;;5070700;28;20025;-67
2022/01/03 03:17:39;;;;;;;18.98;10.32;;;;;;;;;;5070653;28;20050;-67
2022/01/03 03:20:09;;;;;;;18.55;9.95;;;;;;;;;;5070654;28;20025;-67
2022/01/03 03:22:35;;;;;;;20.10;10.77;;;;;;;;;;5070443;28;20073;-67
2022/01/03 03:25:06;;;;;;;20.85;9.98;;;;;;;;;;5070490;28;20028;-67
2022/01/03 03:27:34;;;;;;;22.00;10.70;;;;;;;;;;5070580;28;20028;-67
2022/01/03 03:30:00;;;;;;;17.58;9.90;;;;;;;;;;5070346;28;20149;-67
2022/01/03 03:32:28;;;;;;;18.33;10.05;;;;;;;;;;5070434;28;20627;-67
2022/01/03 03:34:53;;;;;;;19.20;9.75;;;;;;;;;;5070623;28;20105;-67
2022/01/03 03:37:19;;;;;;;16.40;9.40;;;;;;;;;;5070290;28;20424;-67
2022/01/03 03:39:46;;;;;;;17.50;9.55;;;;;;;;;;5070364;28;20024;-67
2022/01/03 03:42:13;;;;;;;17.33;9.43;;;;;;;;;;5069853;28;20111;-67
2022/01/03 03:44:39;;;;;;;16.33;9.38;;;;;;;;;;5070300;28;20031;-67
2022/01/03 03:47:06;;;;;;;17.50;9.35;;;;;;;;;;5070162;28;20020;-67
2022/01/03 03:49:33;;;;;;;16.55;9.68;;;;;;;;;;5070184;28;20021;-67
2022/01/03 03:52:01;;;;;;;17.05;9.32;;;;;;;;;;5070017;28;20028;-67
2022/01/03 03:54:31;;;;;;;18.40;10.23;;;;;;;;;;5070058;28;20100;-67
2022/01/03 03:56:57;;;;;;;17.50;10.30;;;;;;;;;;5070216;28;20024;-67
2022/01/03 03:59:24;;;;;;;16.92;9.15;;;;;;;;;;5070029;28;20021;-67
2022/01/03 04:01:50;;;;;;;15.07;8.85;;;;;;;;;;5070095;28;20024;-68
2022/01/03 04:04:16;;;;;;;16.10;9.63;;;;;;;;;;5069975;28;20033;-67
2022/01/03 04:06:41;;;;;;;17.10;10.10;;;;;;;;;;5069903;28;20086;-67
2022/01/03 04:09:07;;;;;;;18.25;9.38;;;;;;;;;;5070085;28;20021;-67
2022/01/03 04:11:32;;;;;;;16.35;9.07;;;;;;;;;;5070338;28;20028;-67
2022/01/03 04:13:58;;;;;;;16.33;9.63;;;;;;;;;;5069513;28;20032;-67
2022/01/03 04:16:23;;;;;;;16.00;8.70;;;;;;;;;;5070040;28;20029;-67
2022/01/03 04:18:49;;;;;;;16.02;9.15;;;;;;;;;;5069919;28;20020;-67
2022/01/03 04:21:14;;;;;;;14.80;8.48;;;;;;;;;;5051971;28;20456;-67
2022/01/03 04:23:40;;;;;;;15.80;9.13;;;;;;;;;;5069755;28;20056;-67
2022/01/03 04:26:05;;;;;;;15.73;9.25;;;;;;;;;;5069780;28;20028;-67
2022/01/03 04:28:31;;;;;;;18.90;8.50;;;;;;;;;;5069846;28;20033;-67
2022/01/03 04:30:57;;;;;;;14.73;9.00;;;;;;;;;;5069850;28;20078;-67
2022/01/03 04:33:22;;;;;;;15.60;9.57;;;;;;;;;;5070934;28;20047;-67
2022/01/03 04:35:48;;;;;;;16.15;8.55;;;;;;;;;;5073876;28;20032;-67
2022/01/03 04:38:13;;;;;;;15.85;8.38;;;;;;;;;;5074026;28;20522;-67
2022/01/03 04:40:39;;;;;;;14.63;7.97;;;;;;;;;;5073687;28;20434;-67
2022/01/03 04:43:04;;;;;;;13.95;8.20;;;;;;;;;;5073374;28;20047;-67
2022/01/03 04:45:30;;;;;;;13.52;7.63;;;;;;;;;;5073685;28;20108;-67
2022/01/03 04:47:55;;;;;;;15.38;8.32;;;;;;;;;;5055566;28;20392;-67
2022/01/03 04:50:21;;;;;;;15.63;8.23;;;;;;;;;;5073522;28;20028;-67
2022/01/03 04:52:47;;;;;;;16.65;8.82;;;;;;;;;;5073225;28;20028;-67
2022/01/03 04:55:13;;;;;;;14.25;8.27;;;;;;;;;;5073264;28;20028;-67
2022/01/03 04:57:38;;;;;;;16.45;8.40;;;;;;;;;;5073232;28;20513;-67
2022/01/03 05:00:07;;;;;;;14.10;8.02;;;;;;;;;;5073366;28;20024;-67
2022/01/03 05:02:33;;;;;;;15.90;8.27;;;;;;;;;;5073014;28;20029;-67
2022/01/03 05:04:58;;;;;;;17.23;8.43;;;;;;;;;;5073064;28;20031;-67
2022/01/03 05:07:24;;;;;;;16.77;8.25;;;;;;;;;;5072991;28;20024;-67
2022/01/03 05:09:49;;;;;;;13.20;7.85;;;;;;;;;;5073102;28;20420;-67
2022/01/03 05:12:16;;;;;;;13.75;8.05;;;;;;;;;;5073063;28;20025;-68
2022/01/03 05:14:42;;;;;;;14.55;8.07;;;;;;;;;;5072941;28;20079;-68
2022/01/03 05:17:08;;;;;;;15.45;8.05;;;;;;;;;;5072980;28;20445;-67
2022/01/03 05:19:33;;;;;;;15.57;8.27;;;;;;;;;;5073357;28;20035;-67
2022/01/03 05:21:59;;;;;;;14.35;8.23;;;;;;;;;;5072895;28;20028;-66
2022/01/03 05:24:24;;;;;;;16.15;8.43;;;;;;;;;;5072574;28;20028;-67
2022/01/03 05:26:50;;;;;;;16.42;7.97;;;;;;;;;;5072858;28;20468;-67
2022/01/03 05:29:15;;;;;;;15.35;8.40;;;;;;;;;;5072572;28;20047;-67
2022/01/03 05:31:41;;;;;;;13.30;8.07;;;;;;;;;;5072568;28;20154;-67
2022/01/03 05:34:07;;;;;;;14.10;7.72;;;;;;;;;;5072532;28;20024;-67
2022/01/03 05:36:32;;;;;;;14.68;8.68;;;;;;;;;;5072435;28;20056;-67
2022/01/03 05:38:58;;;;;;;17.33;8.73;;;;;;;;;;5072550;28;20134;-67
2022/01/03 05:41:23;;;;;;;13.70;7.90;;;;;;;;;;5072761;28;20035;-67
2022/01/03 05:43:49;;;;;;;15.38;8.20;;;;;;;;;;5071958;28;20443;-66
2022/01/03 05:46:15;;;;;;;14.80;8.43;;;;;;;;;;5071329;28;20038;-66
2022/01/03 05:48:41;;;;;;;15.10;8.13;;;;;;;;;;5072422;28;20056;-67
2022/01/03 05:51:06;;;;;;;16.88;8.60;;;;;;;;;;5072450;28;20020;-67
2022/01/03 05:53:32;;;;;;;16.65;9.02;;;;;;;;;;5072060;28;20024;-67
2022/01/03 05:55:59;;;;;;;17.95;8.95;;;;;;;;;;5072476;28;20103;-67
2022/01/03 05:58:24;;;;;;;15.35;8.65;;;;;;;;;;5072382;28;20025;-67
2022/01/03 06:00:50;;;;;;;16.75;9.50;;;;;;;;;;5072307;28;20094;-67
2022/01/03 06:03:19;;;;;;;28.67;12.65;;;;;;;;;;5071873;28;20024;-67
2022/01/03 06:08:23;;;;;;;16.42;8.85;;;;;;;;;;5072165;28;20020;-67
2022/01/03 06:10:48;;;;;;;15.00;8.75;;;;;;;;;;5072246;28;20028;-67
2022/01/03 06:13:15;;;;;;;14.30;7.75;;;;;;;;;;5071835;28;20538;-66
2022/01/03 06:15:41;;;;;;;14.15;8.30;;;;;;;;;;5071976;28;20032;-67
2022/01/03 06:18:11;;;;;;;14.00;8.35;;;;;;;;;;5071714;28;20050;-67
2022/01/03 06:20:41;;;;;;;14.90;8.77;;;;;;;;;;5071840;28;20028;-67
2022/01/03 06:23:08;;;;;;;14.18;8.20;;;;;;;;;;5071743;28;20032;-67
2022/01/03 06:25:34;;;;;;;18.95;8.48;;;;;;;;;;5071611;28;20071;-67
2022/01/03 06:27:59;;;;;;;14.05;8.15;;;;;;;;;;5071646;28;20056;-67
2022/01/03 06:30:25;;;;;;;14.63;8.13;;;;;;;;;;5071628;28;20271;-67
2022/01/03 06:32:50;;;;;;;19.42;8.70;;;;;;;;;;5071323;28;20387;-72
2022/01/03 06:35:16;;;;;;;14.63;8.13;;;;;;;;;;5071409;28;20028;-67
2022/01/03 06:37:41;;;;;;;40.83;16.58;;;;;;;;;;5071259;28;20053;-67
2022/01/03 06:40:07;;;;;;;58.45;27.90;;;;;;;;;;5071383;28;20069;-67
2022/01/03 06:42:34;;;;;;;32.15;15.30;;;;;;;;;;5071206;28;20484;-67
2022/01/03 06:45:00;;;;;;;26.83;14.40;;;;;;;;;;5070877;28;20403;-67
2022/01/03 06:47:25;;;;;;;37.70;22.90;;;;;;;;;;5071253;28;20029;-66
2022/01/03 06:49:51;;;;;;;30.67;14.98;;;;;;;;;;5071230;28;20032;-67
2022/01/03 06:52:17;;;;;;;39.08;20.98;;;;;;;;;;5071321;28;20463;-67
2022/01/03 06:54:43;;;;;;;22.17;11.00;;;;;;;;;;5070964;28;20025;-67
2022/01/03 06:57:09;;;;;;;29.70;14.63;;;;;;;;;;5070768;28;20036;-66
2022/01/03 06:59:35;;;;;;;19.55;10.77;;;;;;;;;;5070982;28;20028;-66
2022/01/03 07:02:02;;;;;;;25.08;12.13;;;;;;;;;;5071030;28;20484;-66
2022/01/03 07:04:28;;;;;;;42.92;18.38;;;;;;;;;;5070961;28;20369;-66
2022/01/03 07:06:54;;;;;;;38.28;15.73;;;;;;;;;;5070856;28;20032;-66
2022/01/03 07:09:19;;;;;;;37.38;19.05;;;;;;;;;;5070705;28;20024;-66
2022/01/03 07:11:45;;;;;;;23.67;11.85;;;;;;;;;;5070878;28;20034;-66
2022/01/03 07:19:37;;;;;;;16.08;8.82;;;;;;;;;;5070756;28;20438;-67
2022/01/03 07:22:04;;;;;;;47.80;18.70;;;;;;;;;;5070645;28;20468;-66
2022/01/03 07:24:34;;;;;;;15.88;8.30;;;;;;;;;;5070164;28;20033;-67
2022/01/03 07:27:08;;;;;;;12.25;7.18;;;;;;;;;;5070472;28;20039;-67
2022/01/03 07:29:34;;;;;;;11.35;6.85;;;;;;;;;;5070223;28;20468;-67
2022/01/03 07:32:00;;;;;;;12.32;7.05;;;;;;;;;;5070387;28;20082;-66
2022/01/03 07:34:27;;;;;;;20.17;8.75;;;;;;;;;;5070279;28;20036;-66
2022/01/03 07:36:52;;;;;;;18.60;7.63;;;;;;;;;;5070367;28;20074;-66
2022/01/03 07:39:18;;;;;;;13.77;7.38;;;;;;;;;;5070415;28;20458;-66
2022/01/03 07:41:43;;;;;;;12.35;7.18;;;;;;;;;;5070277;28;20073;-66
2022/01/03 07:44:09;;;;;;;13.25;7.25;;;;;;;;;;5070008;28;20449;-65
2022/01/03 07:46:34;;;;;;;13.60;7.30;;;;;;;;;;5070535;28;20060;-66
2022/01/03 07:49:00;;;;;;;17.65;9.00;;;;;;;;;;5070336;28;20028;-65
2022/01/03 07:51:25;;;;;;;22.77;9.18;;;;;;;;;;5070141;28;20480;-66
2022/01/03 07:53:51;;;;;;;14.27;7.75;;;;;;;;;;5069939;28;20033;-65
2022/01/03 07:56:18;;;;;;;12.23;7.45;;;;;;;;;;5070077;28;20024;-66
2022/01/03 07:58:44;;;;;;;27.20;11.27;;;;;;;;;;5069976;28;20523;-65
2022/01/03 08:01:11;;;;;;;19.25;8.52;;;;;;;;;;5070074;28;20029;-65
2022/01/03 08:03:36;;;;;;;17.17;8.00;;;;;;;;;;5069906;28;20036;-66
2022/01/03 08:06:02;;;;;;;14.52;7.80;;;;;;;;;;5069979;28;20392;-66
2022/01/03 08:08:27;;;;;;;15.52;8.10;;;;;;;;;;5069283;28;20021;-67
2022/01/03 08:10:53;;;;;;;15.07;7.80;;;;;;;;;;5070459;28;20030;-66
2022/01/03 08:13:18;;;;;;;14.38;7.85;;;;;;;;;;5069800;28;20017;-66
2022/01/03 08:15:44;;;;;;;13.75;7.55;;;;;;;;;;5069718;28;20116;-67
2022/01/03 08:18:09;;;;;;;13.48;7.15;;;;;;;;;;5070134;28;20028;-66
2022/01/03 08:20:35;;;;;;;19.85;8.63;;;;;;;;;;5069893;28;20020;-67
2022/01/03 08:23:01;;;;;;;22.25;11.43;;;;;;;;;;5070219;28;20444;-67
2022/01/03 08:25:27;;;;;;;37.83;15.18;;;;;;;;;;5070091;28;20074;-66
2022/01/03 08:27:52;;;;;;;33.83;14.18;;;;;;;;;;5069789;28;20059;-66
2022/01/03 08:30:18;;;;;;;17.63;9.32;;;;;;;;;;5070127;28;20028;-66
2022/01/03 08:32:43;;;;;;;18.27;10.23;;;;;;;;;;5069800;28;20454;-67
2022/01/03 08:35:10;;;;;;;19.35;9.52;;;;;;;;;;5069478;28;20035;-67
2022/01/03 08:37:36;;;;;;;17.30;8.60;;;;;;;;;;5069656;28;20068;-67
2022/01/03 08:40:04;;;;;;;19.48;9.05;;;;;;;;;;5069754;28;20054;-68
2022/01/03 08:42:33;;;;;;;16.88;8.70;;;;;;;;;;5069699;28;20484;-67
2022/01/03 08:44:59;;;;;;;15.77;7.78;;;;;;;;;;5069569;28;20021;-68
2022/01/03 08:47:25;;;;;;;18.73;7.72;;;;;;;;;;5069680;28;20472;-67
2022/01/03 08:49:50;;;;;;;14.15;7.63;;;;;;;;;;5070188;28;20021;-67
2022/01/03 08:52:16;;;;;;;18.23;7.97;;;;;;;;;;5069648;28;20484;-67
2022/01/03 08:54:41;;;;;;;13.82;7.05;;;;;;;;;;5069810;28;20067;-66
2022/01/03 08:57:07;;;;;;;14.40;7.40;;;;;;;;;;5069666;28;20322;-66
2022/01/03 08:59:33;;;;;;;13.85;7.15;;;;;;;;;;5069272;28;20036;-67
2022/01/03 09:01:58;;;;;;;19.13;8.07;;;;;;;;;;5069670;28;20039;-66
2022/01/03 09:04:24;;;;;;;13.65;7.82;;;;;;;;;;5069386;28;20169;-67
2022/01/03 09:06:51;;;;;;;14.80;8.30;;;;;;;;;;5069314;28;20111;-66
2022/01/03 09:09:17;;;;;;;14.75;8.50;;;;;;;;;;5069314;28;20025;-67
2022/01/03 09:11:42;;;;;;;21.55;9.23;;;;;;;;;;5069680;28;20033;-67
2022/01/03 09:14:08;;;;;;;17.02;8.60;;;;;;;;;;5069127;28;20914;-67
2022/01/03 09:16:33;;;;;;;25.27;11.48;;;;;;;;;;5069288;28;20473;-67
2022/01/03 09:18:59;;;;;;;11.90;7.60;;;;;;;;;;5069771;28;20546;-68
2022/01/03 09:21:24;;;;;;;14.15;7.47;;;;;;;;;;5072941;28;20492;-68
2022/01/03 09:23:54;;;;;;;18.48;7.80;;;;;;;;;;5072639;28;20032;-67
2022/01/03 09:29:04;;;;;;;16.92;8.15;;;;;;;;;;5072580;28;20042;-67
2022/01/03 09:31:33;;;;;;;19.40;8.02;;;;;;;;;;5072568;28;20091;-67
2022/01/03 09:34:01;;;;;;;18.75;8.90;;;;;;;;;;5072692;28;20020;-67
2022/01/03 09:36:28;;;;;;;15.15;8.50;;;;;;;;;;5072353;28;20514;-67
2022/01/03 09:38:54;;;;;;;18.88;8.80;;;;;;;;;;5072584;28;20387;-67
2022/01/03 09:41:22;;;;;;;16.73;8.27;;;;;;;;;;5072763;28;20027;-67
2022/01/03 09:44:08;;;;;;;18.80;10.18;;;;;;;;;;5072333;28;20106;-67
2022/01/03 09:46:43;;;;;;;19.65;10.70;;;;;;;;;;5072639;28;20028;-68
2022/01/03 09:49:11;;;;;;;25.63;13.55;;;;;;;;;;5072458;28;20036;-67
2022/01/03 09:51:38;;;;;;;23.63;11.77;;;;;;;;;;5072480;28;20024;-68
2022/01/03 09:54:07;;;;;;;17.52;8.93;;;;;;;;;;5072396;28;20086;-68
2022/01/03 09:56:35;;;;;;;25.70;11.68;;;;;;;;;;5072370;28;20456;-67
2022/01/03 09:59:02;;;;;;;18.80;8.63;;;;;;;;;;5072173;28;20024;-69
2022/01/03 10:01:29;;;;;;;15.23;8.77;;;;;;;;;;5072276;28;20044;-67
2022/01/03 10:03:55;;;;;;;15.65;8.65;;;;;;;;;;5072079;28;20108;-67
2022/01/03 10:06:20;;;;;;;18.40;8.38;;;;;;;;;;5071921;28;20051;-67
2022/01/03 10:08:47;;;;;;;19.50;8.90;;;;;;;;;;5072073;28;20017;-67
2022/01/03 10:11:14;;;;;;;16.75;8.13;;;;;;;;;;5071948;28;20021;-67
2022/01/03 10:13:40;;;;;;;18.55;8.40;;;;;;;;;;5071808;28;20046;-67
2022/01/03 10:16:06;;;;;;;17.05;8.52;;;;;;;;;;5071656;28;20030;-67
2022/01/03 10:18:33;;;;;;;15.90;7.85;;;;;;;;;;5071881;28;20063;-67
2022/01/03 10:21:00;;;;;;;15.25;7.90;;;;;;;;;;5071955;28;20021;-67
2022/01/03 10:23:25;;;;;;;15.10;7.75;;;;;;;;;;5071676;28;20025;-69
2022/01/03 10:25:51;;;;;;;13.13;7.75;;;;;;;;;;5071391;28;20115;-67
2022/01/03 10:28:25;;;;;;;13.10;7.35;;;;;;;;;;5071422;28;20020;-68
2022/01/03 10:30:52;;;;;;;14.30;7.18;;;;;;;;;;5070801;28;20384;-66
2022/01/03 10:33:23;;;;;;;15.07;7.80;;;;;;;;;;5071802;28;20248;-66
2022/01/03 10:35:50;;;;;;;11.95;6.60;;;;;;;;;;5071346;28;20035;-67
2022/01/03 10:38:36;;;;;;;13.35;7.22;;;;;;;;;;5071351;28;20044;-66
2022/01/03 10:41:17;;;;;;;12.38;7.15;;;;;;;;;;5071529;28;20180;-67
2022/01/03 10:43:54;;;;;;;15.68;5.95;;;;;;;;;;5070986;28;20025;-67
2022/01/03 10:46:34;;;;;;;12.63;6.03;;;;;;;;;;5071013;28;20053;-67
2022/01/03 10:49:12;;;;;;;9.55;5.97;;;;;;;;;;5071196;28;20487;-68
2022/01/03 10:51:37;;;;;;;13.23;6.25;;;;;;;;;;5071173;28;20388;-66
2022/01/03 10:54:08;;;;;;;12.35;6.93;;;;;;;;;;5071049;28;20036;-66
2022/01/03 10:56:33;;;;;;;11.82;6.88;;;;;;;;;;5070925;28;20472;-66
2022/01/03 10:59:22;;;;;;;13.45;6.53;;;;;;;;;;5070766;28;20029;-66
2022/01/03 11:02:03;;;;;;;12.80;7.55;;;;;;;;;;5070881;28;20388;-69
2022/01/03 11:04:50;;;;;;;18.33;9.27;;;;;;;;;;5070778;28;20032;-70
2022/01/03 11:13:18;;;;;;;21.27;10.43;;;;;;;;;;5070977;28;20135;-70
2022/01/03 11:15:51;;;;;;;13.57;6.82;;;;;;;;;;5070540;28;20024;-70
2022/01/03 11:18:24;;;;;;;13.32;6.68;;;;;;;;;;5070433;28;20024;-70
2022/01/03 11:21:16;;;;;;;10.88;6.13;;;;;;;;;;5070654;28;20078;-69
2022/01/03 11:23:47;;;;;;;12.55;6.18;;;;;;;;;;5070500;28;20063;-70
2022/01/03 11:26:16;;;;;;;10.95;6.07;;;;;;;;;;5070427;28;20557;-70
2022/01/03 11:28:42;;;;;;;12.32;6.45;;;;;;;;;;5070469;28;20032;-69
2022/01/03 11:31:09;;;;;;;15.75;6.70;;;;;;;;;;5070363;28;20032;-69
2022/01/03 11:33:36;;;;;;;10.55;6.07;;;;;;;;;;5070430;28;20099;-70
2022/01/03 11:36:03;;;;;;;10.48;6.10;;;;;;;;;;5070179;28;20116;-69
2022/01/03 11:38:30;;;;;;;10.50;6.18;;;;;;;;;;5070636;28;20108;-69
2022/01/03 11:41:00;;;;;;;9.95;5.88;;;;;;;;;;5070386;28;20048;-70
2022/01/03 11:43:32;;;;;;;10.88;5.45;;;;;;;;;;5069635;28;20038;-69
2022/01/03 11:45:58;;;;;;;10.20;6.05;;;;;;;;;;5069941;28;20440;-70
2022/01/03 11:48:28;;;;;;;10.05;6.18;;;;;;;;;;5070568;28;20025;-69
2022/01/03 11:50:56;;;;;;;10.93;5.85;;;;;;;;;;5070227;28;20024;-69
2022/01/03 11:53:23;;;;;;;9.05;5.10;;;;;;;;;;5070256;28;20116;-70
2022/01/03 11:55:57;;;;;;;8.45;5.35;;;;;;;;;;5069965;28;20095;-69
2022/01/03 12:04:09;;;;;;;10.30;6.40;;;;;;;;;;5070512;28;20032;-69
2022/01/03 12:06:35;;;;;;;13.93;6.95;;;;;;;;;;5069903;28;20028;-69
2022/01/03 12:09:06;;;;;;;11.32;6.40;;;;;;;;;;5070000;28;20028;-69
2022/01/03 12:11:32;;;;;;;13.00;6.47;;;;;;;;;;5069866;28;20048;-69
2022/01/03 12:14:03;;;;;;;11.55;6.43;;;;;;;;;;5069970;28;20071;-69
2022/01/03 12:16:43;;;;;;;10.63;6.53;;;;;;;;;;5070204;28;20032;-69
2022/01/03 12:19:12;;;;;;;13.20;6.30;;;;;;;;;;5070113;28;20021;-69
2022/01/03 12:21:47;;;;;;;14.48;6.82;;;;;;;;;;5069960;28;20052;-69
2022/01/03 12:25:02;;;;;;;12.27;6.25;;;;;;;;;;5051852;28;20392;-69
2022/01/03 12:27:33;;;;;;;11.55;6.45;;;;;;;;;;5066337;28;20037;-69
2022/01/03 12:29:58;;;;;;;;;;;;;;;;;;5070383;28;20028;-69
2022/01/03 12:32:32;;;;;;;16.33;6.70;;;;;;;;;;5070034;28;19916;-69
2022/01/03 12:35:10;;;;;;;9.45;6.35;;;;;;;;;;5069935;28;20028;-70
2022/01/03 12:37:42;;;;;;;13.35;6.45;;;;;;;;;;5069470;28;20045;-69
2022/01/03 12:40:07;;;;;;;10.85;6.10;;;;;;;;;;5069758;28;20259;-69
2022/01/03 12:45:33;;;;;;;11.05;6.40;;;;;;;;;;5069203;28;20032;-71
2022/01/03 12:48:11;;;;;;;11.60;6.60;;;;;;;;;;5061930;28;20046;-69
2022/01/03 12:50:51;;;;;;;14.23;6.28;;;;;;;;;;5069599;28;20029;-69
2022/01/03 12:53:23;;;;;;;;;;;;;;;;;;5069998;28;20086;-70
2022/01/03 12:55:50;;;;;;;12.45;6.07;;;;;;;;;;5072798;28;19913;-70
2022/01/03 12:58:18;;;;;;;11.68;6.28;;;;;;;;;;5073210;28;20039;-70
2022/01/03 13:00:55;;;;;;;11.38;6.05;;;;;;;;;;5073645;28;20036;-69
2022/01/03 13:03:25;;;;;;;11.25;6.00;;;;;;;;;;5055240;28;20028;-70
2022/01/03 13:06:10;;;;;;;10.85;6.45;;;;;;;;;;5073064;28;20029;-69
2022/01/03 13:08:43;;;;;;;9.45;5.68;;;;;;;;;;5073132;28;20025;-69
2022/01/03 13:11:11;;;;;;;11.30;6.05;;;;;;;;;;5072942;28;20078;-69
2022/01/03 13:13:37;;;;;;;13.57;6.65;;;;;;;;;;5073051;28;20027;-69
2022/01/03 13:16:28;;;;;;;11.45;6.10;;;;;;;;;;5072997;28;20032;-70
2022/01/03 13:18:58;;;;;;;16.13;7.15;;;;;;;;;;5072895;28;20025;-69
2022/01/03 13:21:29;;;;;;;13.60;7.13;;;;;;;;;;5073089;28;20059;-69
2022/01/03 13:23:59;;;;;;;14.55;6.82;;;;;;;;;;5072868;28;20057;-69
2022/01/03 13:26:26;;;;;;;13.48;7.32;;;;;;;;;;5072812;28;20028;-69
2022/01/03 13:28:54;;;;;;;11.18;6.75;;;;;;;;;;5072691;28;20029;-70
2022/01/03 13:31:20;;;;;;;15.93;7.18;;;;;;;;;;5072758;28;20020;-69
2022/01/03 13:34:02;;;;;;;14.20;7.20;;;;;;;;;;5072481;28;20044;-70
2022/01/03 13:36:43;;;;;;;10.77;6.60;;;;;;;;;;5072401;28;20045;-69
2022/01/03 13:39:13;;;;;;;12.77;7.28;;;;;;;;;;5072853;28;20104;-69
2022/01/03 13:41:41;;;;;;;18.17;7.28;;;;;;;;;;5072623;28;20051;-69
2022/01/03 13:44:10;;;;;;;14.48;6.63;;;;;;;;;;5072268;28;20495;-69
2022/01/03 13:49:22;;;;;;;11.15;6.07;;;;;;;;;;5072440;28;20031;-70
2022/01/03 13:51:55;;;;;;;12.15;5.85;;;;;;;;;;5072502;28;20044;-70
2022/01/03 13:54:25;;;;;;;10.30;5.85;;;;;;;;;;5072363;28;20093;-69
2022/01/03 13:56:51;;;;;;;10.18;6.10;;;;;;;;;;5072079;28;20488;-70
2022/01/03 13:59:17;;;;;;;12.77;6.00;;;;;;;;;;5072203;28;20025;-70
2022/01/03 14:01:43;;;;;;;13.52;6.55;;;;;;;;;;5072131;28;20021;-69
2022/01/03 14:04:09;;;;;;;12.32;7.10;;;;;;;;;;5072448;28;20380;-69
2022/01/03 14:06:34;;;;;;;10.10;6.50;;;;;;;;;;5070999;28;20021;-70
2022/01/03 14:09:16;;;;;;;16.35;6.50;;;;;;;;;;5072075;28;20078;-70
2022/01/03 14:11:43;;;;;;;14.77;6.70;;;;;;;;;;5071971;28;20079;-70
2022/01/03 14:14:09;;;;;;;11.30;6.43;;;;;;;;;;5071866;28;20048;-69
2022/01/03 14:16:50;;;;;;;13.63;6.70;;;;;;;;;;5071793;28;20035;-70
2022/01/03 14:19:15;;;;;;;16.10;6.80;;;;;;;;;;5071961;28;20029;-69
2022/01/03 14:21:41;;;;;;;16.33;6.72;;;;;;;;;;5071665;28;20028;-70
2022/01/03 14:24:08;;;;;;;14.00;6.72;;;;;;;;;;5071551;28;20077;-69
2022/01/03 14:26:35;;;;;;;15.23;7.88;;;;;;;;;;5071836;28;20028;-69
2022/01/03 14:29:00;;;;;;;16.60;8.20;;;;;;;;;;5071506;28;20074;-69
2022/01/03 14:31:59;;;;;;;16.35;7.55;;;;;;;;;;5071527;28;20032;-69
2022/01/03 14:34:35;;;;;;;16.80;7.65;;;;;;;;;;5071694;28;20392;-69
2022/01/03 14:37:02;;;;;;;15.85;7.93;;;;;;;;;;5071206;28;20127;-69
2022/01/03 14:39:29;;;;;;;13.48;7.55;;;;;;;;;;5071585;28;20020;-70
2022/01/03 14:42:01;;;;;;;13.70;7.57;;;;;;;;;;5071382;28;20024;-71
2022/01/03 14:44:28;;;;;;;15.25;7.28;;;;;;;;;;5071130;28;20059;-70
2022/01/03 14:47:06;;;;;;;15.30;6.80;;;;;;;;;;5071173;28;20041;-70
2022/01/03 14:49:32;;;;;;;12.23;7.28;;;;;;;;;;5053143;28;20025;-69
2022/01/03 14:51:58;;;;;;;12.48;7.47;;;;;;;;;;5071304;28;20078;-70
2022/01/03 14:54:29;;;;;;;15.40;7.38;;;;;;;;;;5053077;28;20395;-70
2022/01/03 14:56:55;;;;;;;13.30;7.00;;;;;;;;;;5070721;28;20116;-69
2022/01/03 14:59:24;;;;;;;13.70;6.97;;;;;;;;;;5071436;28;20060;-70
2022/01/03 15:01:54;;;;;;;14.45;7.22;;;;;;;;;;5070892;28;20108;-69
2022/01/03 15:04:22;;;;;;;15.45;7.25;;;;;;;;;;5070924;28;20051;-70